createdAt,value
2019-06-27T00:01:00.504Z,0
2019-06-27T00:02:10.472Z,0
2019-06-27T00:03:20.443Z,0
2019-06-27T00:04:30.403Z,0
2019-06-27T00:05:40.382Z,0
2019-06-27T00:06:50.110Z,0
2019-06-27T00:08:00.080Z,0
2019-06-27T00:09:10.058Z,0
2019-06-27T00:10:20.013Z,0
2019-06-27T00:11:30.018Z,0
2019-06-27T00:12:39.987Z,0
2019-06-27T00:13:49.698Z,0
2019-06-27T00:14:59.663Z,0
2019-06-27T00:16:09.629Z,0
2019-06-27T00:17:19.353Z,0
2019-06-27T00:18:29.056Z,0
2019-06-27T00:19:39.076Z,0
2019-06-27T00:20:49.046Z,0
2019-06-27T00:21:59.012Z,0
2019-06-27T00:23:08.972Z,0
2019-06-27T00:24:18.933Z,0
2019-06-27T00:25:28.889Z,0
2019-06-27T00:26:38.842Z,0
2019-06-27T00:27:48.855Z,0
2019-06-27T00:28:58.804Z,0
2019-06-27T00:30:08.882Z,0
2019-06-27T00:31:18.843Z,0
2019-06-27T00:32:28.822Z,0
2019-06-27T00:33:38.779Z,0
2019-06-27T00:34:48.820Z,0
2019-06-27T00:35:58.794Z,0
2019-06-27T00:37:08.766Z,0
2019-06-27T00:38:18.494Z,0
2019-06-27T00:39:28.448Z,0
2019-06-27T00:40:38.411Z,0
2019-06-27T00:41:48.379Z,0
2019-06-27T00:42:58.337Z,0
2019-06-27T00:44:08.289Z,0
2019-06-27T00:45:18.247Z,0
2019-06-27T00:46:28.212Z,0
2019-06-27T00:47:38.172Z,0
2019-06-27T00:48:48.130Z,0
2019-06-27T00:49:58.086Z,0
2019-06-27T00:51:08.054Z,0
2019-06-27T00:52:18.016Z,0
2019-06-27T00:53:27.725Z,0
2019-06-27T00:54:37.690Z,0
2019-06-27T00:55:47.403Z,0
2019-06-27T00:57:09.607Z,0
2019-06-27T00:58:22.860Z,0
2019-06-27T00:59:32.820Z,0
2019-06-27T01:00:42.995Z,0
2019-06-27T01:01:52.955Z,0
2019-06-27T01:03:02.916Z,0
2019-06-27T01:04:12.679Z,0
2019-06-27T01:05:22.382Z,0
2019-06-27T01:06:32.349Z,0
2019-06-27T01:07:42.318Z,0
2019-06-27T01:08:52.272Z,0
2019-06-27T01:10:06.002Z,0
2019-06-27T01:11:15.956Z,0
2019-06-27T01:12:25.962Z,0
2019-06-27T01:13:35.976Z,0
2019-06-27T01:14:45.935Z,0
2019-06-27T01:15:55.633Z,0
2019-06-27T01:17:05.596Z,0
2019-06-27T01:18:15.590Z,0
2019-06-27T01:19:25.331Z,0
2019-06-27T01:20:35.284Z,0
2019-06-27T01:21:45.309Z,0
2019-06-27T01:22:55.283Z,0
2019-06-27T01:24:04.980Z,0
2019-06-27T01:25:14.701Z,0
2019-06-27T01:26:24.689Z,0
2019-06-27T01:27:39.484Z,0
2019-06-27T01:28:49.446Z,0
2019-06-27T01:29:59.404Z,0
2019-06-27T01:31:09.370Z,0
2019-06-27T01:32:19.336Z,0
2019-06-27T01:33:28.886Z,0
2019-06-27T01:34:38.726Z,0
2019-06-27T01:35:48.437Z,0
2019-06-27T01:36:58.393Z,0
2019-06-27T01:38:08.354Z,0
2019-06-27T01:39:17.821Z,0
2019-06-27T01:40:27.796Z,5
2019-06-27T01:41:37.753Z,5
2019-06-27T01:42:47.713Z,5
2019-06-27T01:43:59.473Z,5
2019-06-27T01:45:09.440Z,5
2019-06-27T01:46:19.400Z,5
2019-06-27T01:47:29.098Z,5
2019-06-27T01:48:39.070Z,5
2019-06-27T01:49:48.775Z,5
2019-06-27T01:50:58.780Z,5
2019-06-27T01:52:08.784Z,5
2019-06-27T01:53:18.521Z,5
2019-06-27T01:54:28.485Z,5
2019-06-27T01:55:38.451Z,5
2019-06-27T01:56:48.513Z,10
2019-06-27T01:57:58.470Z,10
2019-06-27T01:59:08.445Z,10
2019-06-27T02:00:18.446Z,10
2019-06-27T02:01:28.403Z,10
2019-06-27T02:02:38.354Z,10
2019-06-27T02:03:48.326Z,15
2019-06-27T02:04:58.285Z,15
2019-06-27T02:06:08.402Z,15
2019-06-27T02:07:18.421Z,15
2019-06-27T02:08:28.444Z,15
2019-06-27T02:09:40.788Z,15
2019-06-27T02:10:50.752Z,20
2019-06-27T02:12:00.849Z,20
2019-06-27T02:13:10.825Z,20
2019-06-27T02:14:20.574Z,20
2019-06-27T02:15:31.900Z,20
2019-06-27T02:16:41.352Z,20
2019-06-27T02:17:51.359Z,20
2019-06-27T02:19:01.321Z,20
2019-06-27T02:20:11.281Z,20
2019-06-27T02:21:21.234Z,20
2019-06-27T02:22:31.195Z,20
2019-06-27T02:23:41.159Z,25
2019-06-27T02:24:50.906Z,25
2019-06-27T02:26:00.858Z,25
2019-06-27T02:27:10.810Z,25
2019-06-27T02:28:20.759Z,25
2019-06-27T02:29:30.462Z,30
2019-06-27T02:30:40.490Z,30
2019-06-27T02:31:50.442Z,30
2019-06-27T02:33:00.397Z,30
2019-06-27T02:34:16.082Z,30
2019-06-27T02:35:25.790Z,30
2019-06-27T02:36:35.798Z,35
2019-06-27T02:37:45.769Z,35
2019-06-27T02:38:55.756Z,40
2019-06-27T02:40:05.726Z,40
2019-06-27T02:41:15.687Z,40
2019-06-27T02:42:25.407Z,40
2019-06-27T02:43:35.481Z,40
2019-06-27T02:44:45.447Z,40
2019-06-27T02:45:55.414Z,40
2019-06-27T02:47:05.381Z,40
2019-06-27T02:48:15.382Z,40
2019-06-27T02:49:25.493Z,45
2019-06-27T02:50:35.528Z,45
2019-06-27T02:51:45.499Z,45
2019-06-27T02:52:55.482Z,45
2019-06-27T02:54:05.459Z,45
2019-06-27T02:55:15.426Z,50
2019-06-27T02:56:25.393Z,50
2019-06-27T02:57:35.389Z,50
2019-06-27T02:58:45.366Z,50
2019-06-27T02:59:55.358Z,50
2019-06-27T03:01:05.335Z,55
2019-06-27T03:02:15.370Z,55
2019-06-27T03:03:25.334Z,55
2019-06-27T03:04:35.307Z,60
2019-06-27T03:05:45.315Z,60
2019-06-27T03:06:55.103Z,60
2019-06-27T03:08:05.086Z,60
2019-06-27T03:09:15.092Z,60
2019-06-27T03:10:25.318Z,65
2019-06-27T03:11:35.296Z,70
2019-06-27T03:12:45.316Z,70
2019-06-27T03:13:55.282Z,70
2019-06-27T03:15:05.258Z,70
2019-06-27T03:16:15.237Z,75
2019-06-27T03:17:25.243Z,75
2019-06-27T03:18:35.212Z,75
2019-06-27T03:19:45.192Z,75
2019-06-27T03:20:55.193Z,75
2019-06-27T03:22:10.163Z,75
2019-06-27T03:23:19.909Z,80
2019-06-27T03:24:29.667Z,80
2019-06-27T03:25:39.638Z,85
2019-06-27T03:26:49.653Z,85
2019-06-27T03:27:59.624Z,85
2019-06-27T03:29:09.599Z,85
2019-06-27T03:30:19.693Z,85
2019-06-27T03:31:29.910Z,90
2019-06-27T03:32:40.019Z,95
2019-06-27T03:33:50.159Z,95
2019-06-27T03:35:00.194Z,95
2019-06-27T03:36:10.286Z,100
2019-06-27T03:37:19.995Z,110
2019-06-27T03:38:29.957Z,110
2019-06-27T03:39:39.426Z,100
2019-06-27T03:40:49.386Z,105
2019-06-27T03:41:59.430Z,105
2019-06-27T03:43:09.473Z,115
2019-06-27T03:44:19.466Z,115
2019-06-27T03:45:29.474Z,110
2019-06-27T03:46:39.466Z,115
2019-06-27T03:47:49.432Z,120
2019-06-27T03:48:59.401Z,115
2019-06-27T03:50:09.456Z,120
2019-06-27T03:51:19.551Z,120
2019-06-27T03:52:29.411Z,120
2019-06-27T03:53:39.439Z,115
2019-06-27T03:54:49.416Z,120
2019-06-27T03:55:59.407Z,115
2019-06-27T03:57:09.374Z,120
2019-06-27T03:58:19.372Z,130
2019-06-27T03:59:29.350Z,130
2019-06-27T04:00:38.872Z,135
2019-06-27T04:01:48.832Z,145
2019-06-27T04:02:58.799Z,145
2019-06-27T04:04:08.522Z,150
2019-06-27T04:05:18.506Z,155
2019-06-27T04:06:28.238Z,155
2019-06-27T04:07:38.209Z,155
2019-06-27T04:08:48.181Z,150
2019-06-27T04:09:58.156Z,150
2019-06-27T04:11:08.167Z,155
2019-06-27T04:12:18.132Z,150
2019-06-27T04:13:27.863Z,155
2019-06-27T04:14:37.575Z,145
2019-06-27T04:15:47.557Z,145
2019-06-27T04:16:59.157Z,140
2019-06-27T04:18:09.170Z,140
2019-06-27T04:19:19.196Z,145
2019-06-27T04:20:29.230Z,140
2019-06-27T04:21:39.215Z,140
2019-06-27T04:22:49.188Z,140
2019-06-27T04:23:59.160Z,140
2019-06-27T04:25:09.290Z,140
2019-06-27T04:26:19.249Z,145
2019-06-27T04:27:29.249Z,145
2019-06-27T04:28:39.206Z,150
2019-06-27T04:29:48.686Z,150
2019-06-27T04:30:58.652Z,150
2019-06-27T04:32:08.649Z,150
2019-06-27T04:33:18.657Z,150
2019-06-27T04:34:29.892Z,155
2019-06-27T04:35:39.886Z,150
2019-06-27T04:36:49.891Z,150
2019-06-27T04:37:59.862Z,150
2019-06-27T04:39:09.848Z,150
2019-06-27T04:40:19.825Z,150
2019-06-27T04:41:29.824Z,155
2019-06-27T04:42:39.833Z,150
2019-06-27T04:43:49.820Z,145
2019-06-27T04:44:59.787Z,150
2019-06-27T04:46:09.758Z,150
2019-06-27T04:47:19.499Z,150
2019-06-27T04:48:29.567Z,150
2019-06-27T04:49:39.439Z,150
2019-06-27T04:50:49.422Z,150
2019-06-27T04:51:59.389Z,145
2019-06-27T04:53:09.389Z,145
2019-06-27T04:54:19.359Z,145
2019-06-27T04:55:29.400Z,145
2019-06-27T04:56:39.390Z,145
2019-06-27T04:57:49.366Z,145
2019-06-27T04:58:59.077Z,155
2019-06-27T05:00:08.799Z,150
2019-06-27T05:01:18.756Z,150
2019-06-27T05:02:32.903Z,155
2019-06-27T05:03:42.889Z,155
2019-06-27T05:04:52.859Z,155
2019-06-27T05:06:02.852Z,155
2019-06-27T05:07:12.830Z,155
2019-06-27T05:08:24.393Z,155
2019-06-27T05:09:34.157Z,160
2019-06-27T05:10:44.120Z,155
2019-06-27T05:11:54.196Z,155
2019-06-27T05:13:04.171Z,155
2019-06-27T05:14:14.148Z,155
2019-06-27T05:15:24.127Z,155
2019-06-27T05:16:34.096Z,155
2019-06-27T05:17:44.090Z,155
2019-06-27T05:18:54.043Z,155
2019-06-27T05:20:07.791Z,155
2019-06-27T05:21:17.754Z,155
2019-06-27T05:22:27.761Z,155
2019-06-27T05:23:37.804Z,155
2019-06-27T05:24:47.837Z,155
2019-06-27T05:25:57.930Z,155
2019-06-27T05:27:07.950Z,155
2019-06-27T05:28:17.984Z,155
2019-06-27T05:29:27.687Z,155
2019-06-27T05:30:37.416Z,160
2019-06-27T05:31:47.421Z,160
2019-06-27T05:32:57.151Z,160
2019-06-27T05:34:07.202Z,160
2019-06-27T05:35:17.203Z,160
2019-06-27T05:36:27.140Z,160
2019-06-27T05:37:37.076Z,160
2019-06-27T05:38:47.023Z,160
2019-06-27T05:39:56.990Z,160
2019-06-27T05:41:06.722Z,160
2019-06-27T05:42:16.653Z,165
2019-06-27T05:43:26.587Z,165
2019-06-27T05:44:36.080Z,165
2019-06-27T05:45:46.022Z,165
2019-06-27T05:46:55.963Z,165
2019-06-27T05:48:05.645Z,165
2019-06-27T05:49:15.612Z,165
2019-06-27T05:50:25.294Z,165
2019-06-27T05:51:35.228Z,165
2019-06-27T05:52:45.222Z,165
2019-06-27T05:53:55.189Z,165
2019-06-27T05:55:05.039Z,170
2019-06-27T05:56:14.992Z,170
2019-06-27T05:57:24.972Z,170
2019-06-27T05:58:35.071Z,170
2019-06-27T05:59:45.020Z,170
2019-06-27T06:00:54.722Z,170
2019-06-27T06:02:04.672Z,170
2019-06-27T06:03:14.406Z,170
2019-06-27T06:04:26.532Z,170
2019-06-27T06:05:36.465Z,170
2019-06-27T06:06:46.492Z,170
2019-06-27T06:07:56.430Z,170
2019-06-27T06:09:06.367Z,170
2019-06-27T06:10:16.346Z,165
2019-06-27T06:11:26.327Z,165
2019-06-27T06:12:36.270Z,165
2019-06-27T06:13:46.217Z,165
2019-06-27T06:14:56.156Z,165
2019-06-27T06:16:08.386Z,170
2019-06-27T06:17:18.330Z,170
2019-06-27T06:18:28.292Z,170
2019-06-27T06:19:38.228Z,170
2019-06-27T06:20:48.163Z,170
2019-06-27T06:21:58.102Z,170
2019-06-27T06:23:08.095Z,170
2019-06-27T06:24:18.036Z,170
2019-06-27T06:25:28.042Z,170
2019-06-27T06:26:38.022Z,170
2019-06-27T06:27:47.978Z,170
2019-06-27T06:28:58.003Z,170
2019-06-27T06:30:07.971Z,175
2019-06-27T06:31:17.657Z,175
2019-06-27T06:32:27.347Z,175
2019-06-27T06:33:37.294Z,175
2019-06-27T06:34:47.243Z,175
2019-06-27T06:35:57.418Z,175
2019-06-27T06:37:10.499Z,180
2019-06-27T06:38:20.726Z,175
2019-06-27T06:39:30.772Z,175
2019-06-27T06:40:40.707Z,175
2019-06-27T06:41:50.638Z,175
2019-06-27T06:43:05.655Z,175
2019-06-27T06:44:15.589Z,175
2019-06-27T06:45:25.528Z,175
2019-06-27T06:46:35.495Z,175
2019-06-27T06:47:45.433Z,175
2019-06-27T06:48:55.412Z,175
2019-06-27T06:50:05.348Z,180
2019-06-27T06:51:15.297Z,180
2019-06-27T06:52:25.049Z,185
2019-06-27T06:53:34.742Z,180
2019-06-27T06:54:44.682Z,180
2019-06-27T06:55:54.645Z,180
2019-06-27T06:57:04.598Z,185
2019-06-27T06:58:14.592Z,185
2019-06-27T06:59:24.034Z,185
2019-06-27T07:00:34.004Z,190
2019-06-27T07:01:47.947Z,190
2019-06-27T07:02:57.981Z,185
2019-06-27T07:04:07.953Z,190
2019-06-27T07:05:17.905Z,190
2019-06-27T07:06:27.990Z,190
2019-06-27T07:07:37.932Z,185
2019-06-27T07:08:47.888Z,195
2019-06-27T07:09:57.830Z,185
2019-06-27T07:11:07.848Z,195
2019-06-27T07:12:17.618Z,190
2019-06-27T07:13:27.621Z,190
2019-06-27T07:14:37.566Z,195
2019-06-27T07:15:47.509Z,195
2019-06-27T07:16:57.466Z,190
2019-06-27T07:18:07.412Z,190
2019-06-27T07:19:17.350Z,200
2019-06-27T07:20:27.682Z,195
2019-06-27T07:21:37.611Z,190
2019-06-27T07:22:47.605Z,190
2019-06-27T07:23:57.557Z,190
2019-06-27T07:25:07.448Z,190
2019-06-27T07:26:17.479Z,190
2019-06-27T07:27:27.339Z,195
2019-06-27T07:28:37.282Z,195
2019-06-27T07:29:47.343Z,195
2019-06-27T07:30:57.272Z,195
2019-06-27T07:32:07.235Z,195
2019-06-27T07:33:19.860Z,200
2019-06-27T07:34:29.937Z,195
2019-06-27T07:35:39.989Z,195
2019-06-27T07:36:50.119Z,195
2019-06-27T07:38:00.064Z,195
2019-06-27T07:39:10.042Z,195
2019-06-27T07:40:20.039Z,200
2019-06-27T07:41:29.979Z,200
2019-06-27T07:42:39.921Z,205
2019-06-27T07:43:49.888Z,205
2019-06-27T07:44:59.852Z,200
2019-06-27T07:46:26.884Z,195
2019-06-27T07:47:36.579Z,195
2019-06-27T07:48:46.525Z,195
2019-06-27T07:49:56.208Z,195
2019-06-27T07:51:06.255Z,195
2019-06-27T07:52:16.659Z,195
2019-06-27T07:53:26.629Z,195
2019-06-27T07:54:36.373Z,195
2019-06-27T07:55:46.316Z,195
2019-06-27T07:56:56.246Z,195
2019-06-27T07:58:06.188Z,195
2019-06-27T07:59:16.121Z,200
2019-06-27T08:00:25.827Z,195
2019-06-27T08:01:44.608Z,200
2019-06-27T08:02:54.632Z,195
2019-06-27T08:04:04.576Z,200
2019-06-27T08:05:14.796Z,200
2019-06-27T08:06:24.756Z,200
2019-06-27T08:07:34.695Z,200
2019-06-27T08:08:44.671Z,200
2019-06-27T08:09:54.360Z,200
2019-06-27T08:11:04.383Z,205
2019-06-27T08:12:14.092Z,200
2019-06-27T08:13:24.050Z,205
2019-06-27T08:14:33.750Z,200
2019-06-27T08:15:43.692Z,205
2019-06-27T08:16:53.673Z,200
2019-06-27T08:18:03.633Z,200
2019-06-27T08:19:13.370Z,205
2019-06-27T08:20:23.317Z,205
2019-06-27T08:21:33.256Z,205
2019-06-27T08:22:42.970Z,205
2019-06-27T08:23:52.923Z,205
2019-06-27T08:25:02.868Z,205
2019-06-27T08:26:12.855Z,205
2019-06-27T08:27:22.792Z,210
2019-06-27T08:28:32.751Z,210
2019-06-27T08:29:42.754Z,210
2019-06-27T08:30:52.692Z,210
2019-06-27T08:32:02.630Z,215
2019-06-27T08:33:12.575Z,210
2019-06-27T08:34:22.509Z,215
2019-06-27T08:35:36.027Z,215
2019-06-27T08:36:46.139Z,215
2019-06-27T08:37:56.386Z,215
2019-06-27T08:39:06.347Z,215
2019-06-27T08:40:16.293Z,220
2019-06-27T08:41:26.260Z,220
2019-06-27T08:42:36.215Z,220
2019-06-27T08:43:46.163Z,220
2019-06-27T08:44:56.181Z,220
2019-06-27T08:46:06.189Z,220
2019-06-27T08:47:16.151Z,225
2019-06-27T08:48:25.589Z,225
2019-06-27T08:49:35.527Z,225
2019-06-27T08:50:45.232Z,225
2019-06-27T08:51:55.195Z,225
2019-06-27T08:53:08.540Z,225
2019-06-27T08:54:18.510Z,230
2019-06-27T08:55:28.450Z,230
2019-06-27T08:56:38.402Z,230
2019-06-27T08:57:48.356Z,230
2019-06-27T08:58:58.311Z,230
2019-06-27T09:00:08.424Z,230
2019-06-27T09:01:18.389Z,230
2019-06-27T09:02:28.338Z,230
2019-06-27T09:03:38.351Z,230
2019-06-27T09:04:48.332Z,230
2019-06-27T09:05:58.286Z,230
2019-06-27T09:07:08.238Z,230
2019-06-27T09:08:18.196Z,230
2019-06-27T09:09:27.915Z,230
2019-06-27T09:10:37.871Z,235
2019-06-27T09:11:48.002Z,235
2019-06-27T09:12:57.955Z,240
2019-06-27T09:14:07.961Z,240
2019-06-27T09:15:17.905Z,235
2019-06-27T09:16:27.846Z,245
2019-06-27T09:17:37.901Z,240
2019-06-27T09:18:47.841Z,240
2019-06-27T09:19:57.871Z,240
2019-06-27T09:21:07.568Z,240
2019-06-27T09:22:17.526Z,245
2019-06-27T09:23:27.503Z,245
2019-06-27T09:24:37.486Z,245
2019-06-27T09:25:47.497Z,245
2019-06-27T09:26:57.237Z,245
2019-06-27T09:28:07.225Z,245
2019-06-27T09:29:16.917Z,245
2019-06-27T09:30:26.353Z,255
2019-06-27T09:31:36.360Z,255
2019-06-27T09:32:46.328Z,255
2019-06-27T09:33:56.309Z,250
2019-06-27T09:35:06.294Z,250
2019-06-27T09:36:16.300Z,255
2019-06-27T09:37:26.247Z,255
2019-06-27T09:38:36.471Z,255
2019-06-27T09:39:46.461Z,260
2019-06-27T09:40:56.439Z,260
2019-06-27T09:42:06.388Z,270
2019-06-27T09:43:16.323Z,270
2019-06-27T09:44:25.276Z,265
2019-06-27T09:45:35.259Z,260
2019-06-27T09:46:44.999Z,260
2019-06-27T09:47:54.990Z,260
2019-06-27T09:49:04.951Z,260
2019-06-27T09:50:14.921Z,260
2019-06-27T09:51:24.887Z,260
2019-06-27T09:52:34.834Z,265
2019-06-27T09:53:44.547Z,265
2019-06-27T09:54:54.571Z,265
2019-06-27T09:56:04.531Z,265
2019-06-27T09:57:14.507Z,265
2019-06-27T09:58:24.452Z,265
2019-06-27T09:59:34.157Z,265
2019-06-27T10:00:44.092Z,270
2019-06-27T10:01:54.038Z,270
2019-06-27T10:03:04.071Z,270
2019-06-27T10:04:14.026Z,270
2019-06-27T10:05:23.742Z,270
2019-06-27T10:06:35.890Z,270
2019-06-27T10:07:45.861Z,275
2019-06-27T10:08:55.817Z,275
2019-06-27T10:10:05.765Z,275
2019-06-27T10:11:15.712Z,280
2019-06-27T10:12:41.120Z,280
2019-06-27T10:13:51.710Z,280
2019-06-27T10:15:01.671Z,280
2019-06-27T10:16:11.631Z,280
2019-06-27T10:17:21.571Z,285
2019-06-27T10:18:31.544Z,285
2019-06-27T10:19:41.271Z,285
2019-06-27T10:20:51.211Z,285
2019-06-27T10:22:01.215Z,285
2019-06-27T10:23:11.222Z,285
2019-06-27T10:24:21.374Z,285
2019-06-27T10:25:31.304Z,285
2019-06-27T10:26:41.422Z,285
2019-06-27T10:27:51.429Z,285
2019-06-27T10:29:01.421Z,280
2019-06-27T10:30:11.391Z,280
2019-06-27T10:31:21.328Z,285
2019-06-27T10:32:31.276Z,285
2019-06-27T10:33:41.227Z,285
2019-06-27T10:34:51.201Z,285
2019-06-27T10:36:01.138Z,285
2019-06-27T10:37:11.114Z,290
2019-06-27T10:38:21.094Z,290
2019-06-27T10:39:30.548Z,290
2019-06-27T10:40:40.524Z,295
2019-06-27T10:41:50.499Z,295
2019-06-27T10:43:00.446Z,295
2019-06-27T10:44:10.568Z,300
2019-06-27T10:45:20.452Z,300
2019-06-27T10:46:30.475Z,300
2019-06-27T10:47:40.468Z,305
2019-06-27T10:48:50.420Z,305
2019-06-27T10:50:00.400Z,305
2019-06-27T10:51:10.410Z,310
2019-06-27T10:52:20.395Z,310
2019-06-27T10:53:30.335Z,310
2019-06-27T10:54:40.280Z,315
2019-06-27T10:55:50.231Z,315
2019-06-27T10:57:00.186Z,320
2019-06-27T10:58:10.327Z,320
2019-06-27T10:59:20.053Z,325
2019-06-27T11:00:30.027Z,325
2019-06-27T11:01:39.975Z,325
2019-06-27T11:02:49.915Z,325
2019-06-27T11:03:59.901Z,330
2019-06-27T11:05:09.844Z,330
2019-06-27T11:06:19.796Z,335
2019-06-27T11:07:29.744Z,335
2019-06-27T11:08:39.756Z,335
2019-06-27T11:09:52.782Z,335
2019-06-27T11:11:02.533Z,345
2019-06-27T11:12:12.556Z,340
2019-06-27T11:13:22.588Z,340
2019-06-27T11:14:32.540Z,345
2019-06-27T11:15:42.268Z,345
2019-06-27T11:16:52.235Z,345
2019-06-27T11:18:02.194Z,350
2019-06-27T11:19:12.193Z,350
2019-06-27T11:20:24.848Z,350
2019-06-27T11:21:34.791Z,350
2019-06-27T11:22:44.746Z,350
2019-06-27T11:23:54.720Z,355
2019-06-27T11:25:04.488Z,355
2019-06-27T11:26:16.760Z,355
2019-06-27T11:27:29.817Z,360
2019-06-27T11:28:39.793Z,360
2019-06-27T11:29:49.791Z,365
2019-06-27T11:30:59.799Z,360
2019-06-27T11:32:09.784Z,365
2019-06-27T11:33:36.304Z,370
2019-06-27T11:34:45.997Z,370
2019-06-27T11:35:56.022Z,375
2019-06-27T11:37:05.984Z,380
2019-06-27T11:38:16.063Z,465
2019-06-27T11:39:27.904Z,1740
2019-06-27T11:40:37.661Z,2830
2019-06-27T11:41:47.655Z,2955
2019-06-27T11:42:57.601Z,2305
2019-06-27T11:44:07.563Z,2860
2019-06-27T11:45:17.525Z,2945
2019-06-27T11:46:27.277Z,3030
2019-06-27T11:47:39.416Z,3230
2019-06-27T11:48:49.380Z,3170
2019-06-27T11:49:59.340Z,3245
2019-06-27T11:51:09.047Z,3095
2019-06-27T11:52:18.813Z,3100
2019-06-27T11:53:28.518Z,3015
2019-06-27T11:54:38.308Z,3085
2019-06-27T11:55:48.362Z,2990
2019-06-27T11:56:58.430Z,2950
2019-06-27T11:58:08.400Z,3100
2019-06-27T11:59:18.159Z,3075
2019-06-27T12:00:27.737Z,3180
2019-06-27T12:01:37.696Z,3110
2019-06-27T12:02:47.850Z,3165
2019-06-27T12:03:59.563Z,2115
2019-06-27T12:05:09.529Z,3085
2019-06-27T12:06:19.481Z,3150
2019-06-27T12:07:29.455Z,2885
2019-06-27T12:08:39.407Z,2740
2019-06-27T12:09:49.395Z,2230
2019-06-27T12:10:59.367Z,2910
2019-06-27T12:12:09.424Z,2830
2019-06-27T12:13:19.583Z,3060
2019-06-27T12:14:29.577Z,3060
2019-06-27T12:15:39.280Z,2905
2019-06-27T12:16:49.252Z,2860
2019-06-27T12:17:59.301Z,2960
2019-06-27T12:19:09.338Z,2910
2019-06-27T12:20:19.303Z,2865
2019-06-27T12:21:29.374Z,3040
2019-06-27T12:22:39.116Z,3290
2019-06-27T12:23:49.147Z,3225
2019-06-27T12:24:59.114Z,3225
2019-06-27T12:26:09.075Z,3080
2019-06-27T12:27:19.067Z,3160
2019-06-27T12:28:28.841Z,3125
2019-06-27T12:29:38.815Z,3090
2019-06-27T12:30:48.837Z,3135
2019-06-27T12:32:01.318Z,2965
2019-06-27T12:33:11.366Z,3095
2019-06-27T12:34:21.177Z,2990
2019-06-27T12:35:30.891Z,3025
2019-06-27T12:36:41.107Z,3045
2019-06-27T12:37:51.071Z,3000
2019-06-27T12:39:01.043Z,3160
2019-06-27T12:40:10.797Z,3145
2019-06-27T12:41:20.532Z,3100
2019-06-27T12:42:41.939Z,3160
2019-06-27T12:43:51.901Z,3265
2019-06-27T12:45:01.855Z,3195
2019-06-27T12:46:11.834Z,3205
2019-06-27T12:47:21.800Z,3115
2019-06-27T12:48:31.516Z,2685
2019-06-27T12:50:10.128Z,2865
2019-06-27T12:51:20.088Z,3035
2019-06-27T12:52:29.854Z,3080
2019-06-27T12:53:39.822Z,3045
2019-06-27T12:54:49.822Z,3020
2019-06-27T12:55:59.946Z,2920
2019-06-27T12:57:09.997Z,2860
2019-06-27T12:58:19.974Z,2925
2019-06-27T12:59:29.933Z,2945
2019-06-27T13:00:39.536Z,2900
2019-06-27T13:01:49.500Z,2815
2019-06-27T13:02:59.466Z,2810
2019-06-27T13:04:25.234Z,2785
2019-06-27T13:05:35.238Z,2650
2019-06-27T13:06:45.087Z,2665
2019-06-27T13:07:55.048Z,2580
2019-06-27T13:09:05.004Z,2415
2019-06-27T13:10:14.989Z,2330
2019-06-27T13:11:25.002Z,2285
2019-06-27T13:12:34.980Z,2205
2019-06-27T13:13:44.934Z,2065
2019-06-27T13:14:54.989Z,1955
2019-06-27T13:16:04.802Z,1975
2019-06-27T13:17:14.506Z,2015
2019-06-27T13:18:24.501Z,2035
2019-06-27T13:19:33.950Z,2100
2019-06-27T13:21:00.997Z,2475
2019-06-27T13:22:10.967Z,2990
2019-06-27T13:23:21.075Z,3360
2019-06-27T13:24:30.550Z,3525
2019-06-27T13:25:43.804Z,3600
2019-06-27T13:26:53.764Z,3665
2019-06-27T13:28:03.830Z,3410
2019-06-27T13:29:13.594Z,3405
2019-06-27T13:30:23.567Z,3560
2019-06-27T13:31:33.362Z,3450
2019-06-27T13:32:43.342Z,3540
2019-06-27T13:33:53.301Z,3695
2019-06-27T13:35:03.320Z,3665
2019-06-27T13:36:13.297Z,3565
2019-06-27T13:37:23.496Z,3385
2019-06-27T13:38:33.468Z,3445
2019-06-27T13:39:43.219Z,3610
2019-06-27T13:40:53.204Z,3570
2019-06-27T13:42:03.167Z,3760
2019-06-27T13:43:13.126Z,4015
2019-06-27T13:44:22.890Z,3910
2019-06-27T13:45:36.162Z,3730
2019-06-27T13:46:46.292Z,3910
2019-06-27T13:47:56.252Z,3885
2019-06-27T13:49:06.385Z,3875
2019-06-27T13:50:16.090Z,3735
2019-06-27T13:51:26.063Z,3870
2019-06-27T13:52:36.082Z,3895
2019-06-27T13:53:45.791Z,3770
2019-06-27T13:54:55.764Z,3760
2019-06-27T13:56:05.728Z,3685
2019-06-27T13:57:15.701Z,3455
2019-06-27T13:58:25.756Z,3515
2019-06-27T13:59:35.456Z,3310
2019-06-27T14:00:45.207Z,3355
2019-06-27T14:01:54.930Z,3515
2019-06-27T14:03:04.890Z,3585
2019-06-27T14:04:14.856Z,3510
2019-06-27T14:05:24.851Z,3590
2019-06-27T14:06:34.735Z,3555
2019-06-27T14:07:44.805Z,3515
2019-06-27T14:08:54.807Z,3615
2019-06-27T14:10:07.211Z,3650
2019-06-27T14:11:17.168Z,3565
2019-06-27T14:12:27.129Z,3580
2019-06-27T14:13:37.132Z,3640
2019-06-27T14:15:03.602Z,3535
2019-06-27T14:16:15.607Z,3605
2019-06-27T14:17:25.595Z,3495
2019-06-27T14:18:35.583Z,3470
2019-06-27T14:19:45.577Z,3430
2019-06-27T14:20:55.545Z,3470
2019-06-27T14:22:08.517Z,3520
2019-06-27T14:23:18.491Z,3400
2019-06-27T14:24:28.450Z,1520
2019-06-27T14:25:37.919Z,3130
2019-06-27T14:26:47.909Z,3190
2019-06-27T14:27:57.915Z,3260
2019-06-27T14:29:07.948Z,3085
2019-06-27T14:30:17.919Z,3070
2019-06-27T14:31:27.898Z,3290
2019-06-27T14:32:37.860Z,3270
2019-06-27T14:33:47.865Z,3225
2019-06-27T14:35:13.922Z,3215
2019-06-27T14:36:24.857Z,3245
2019-06-27T14:37:34.886Z,3305
2019-06-27T14:38:44.851Z,3325
2019-06-27T14:39:58.919Z,3300
2019-06-27T14:41:08.649Z,3345
2019-06-27T14:42:18.357Z,3220
2019-06-27T14:43:28.088Z,3330
2019-06-27T14:44:38.045Z,3290
2019-06-27T14:45:47.762Z,3170
2019-06-27T14:46:57.790Z,3045
2019-06-27T14:48:07.508Z,3115
2019-06-27T14:49:17.241Z,3030
2019-06-27T14:50:27.218Z,3060
2019-06-27T14:51:37.176Z,3020
2019-06-27T14:52:47.162Z,2915
2019-06-27T14:53:57.121Z,2965
2019-06-27T14:55:07.115Z,2995
2019-06-27T14:56:17.089Z,3055
2019-06-27T14:57:26.797Z,3015
2019-06-27T14:58:40.652Z,2980
2019-06-27T14:59:50.613Z,2850
2019-06-27T15:01:03.753Z,2895
2019-06-27T15:02:14.824Z,2950
2019-06-27T15:03:24.790Z,3025
2019-06-27T15:04:34.510Z,2990
2019-06-27T15:05:44.473Z,2840
2019-06-27T15:06:54.447Z,2900
2019-06-27T15:08:04.407Z,2905
2019-06-27T15:09:14.368Z,2905
2019-06-27T15:10:24.362Z,3090
2019-06-27T15:11:34.080Z,3095
2019-06-27T15:13:01.203Z,3085
2019-06-27T15:14:11.166Z,2880
2019-06-27T15:15:21.151Z,2970
2019-06-27T15:16:31.155Z,3010
2019-06-27T15:17:41.133Z,3015
2019-06-27T15:18:51.176Z,2870
2019-06-27T15:20:04.279Z,2875
2019-06-27T15:21:14.274Z,2995
2019-06-27T15:22:24.274Z,2990
2019-06-27T15:23:36.488Z,3020
2019-06-27T15:24:46.463Z,2920
2019-06-27T15:25:56.419Z,2825
2019-06-27T15:27:06.501Z,2890
2019-06-27T15:28:16.508Z,2860
2019-06-27T15:29:26.466Z,2970
2019-06-27T15:30:36.438Z,2950
2019-06-27T15:31:46.413Z,2920
2019-06-27T15:32:56.382Z,2920
2019-06-27T15:34:06.469Z,2860
2019-06-27T15:35:16.464Z,2760
2019-06-27T15:36:26.429Z,2720
2019-06-27T15:37:36.160Z,2845
2019-06-27T15:38:46.125Z,2740
2019-06-27T15:39:55.885Z,2630
2019-06-27T15:41:05.619Z,2565
2019-06-27T15:42:15.582Z,2620
2019-06-27T15:43:25.540Z,2655
2019-06-27T15:44:35.533Z,2550
2019-06-27T15:45:45.520Z,2590
2019-06-27T15:46:58.976Z,2640
2019-06-27T15:48:08.993Z,2535
2019-06-27T15:49:18.978Z,2535
2019-06-27T15:50:28.726Z,2620
2019-06-27T15:51:38.686Z,2690
2019-06-27T15:52:48.704Z,2625
2019-06-27T15:53:58.674Z,2550
2019-06-27T15:55:11.961Z,2540
2019-06-27T15:56:22.201Z,2395
2019-06-27T15:57:32.222Z,2415
2019-06-27T15:58:42.205Z,2555
2019-06-27T15:59:51.947Z,2565
2019-06-27T16:01:02.070Z,2655
2019-06-27T16:02:12.144Z,2585
2019-06-27T16:03:22.115Z,2510
2019-06-27T16:04:42.115Z,2640
2019-06-27T16:06:04.920Z,2625
2019-06-27T16:07:18.070Z,2670
2019-06-27T16:08:28.026Z,2660
2019-06-27T16:09:37.747Z,2680
2019-06-27T16:10:47.468Z,2675